createdAt,value
2023-03-12T00:00:04.042Z,18.00
2023-03-12T00:02:35.440Z,16.00
2023-03-12T00:05:02.830Z,21.00
2023-03-12T00:07:29.734Z,18.00
2023-03-12T00:09:56.845Z,24.25
2023-03-12T00:12:23.713Z,27.00
2023-03-12T00:14:51.203Z,22.50
2023-03-12T00:17:18.135Z,22.50
2023-03-12T00:19:45.118Z,22.25
2023-03-12T00:22:12.166Z,18.00
2023-03-12T00:24:39.227Z,16.00
2023-03-12T00:27:07.712Z,21.50
2023-03-12T00:29:35.904Z,20.25
2023-03-12T00:32:02.805Z,23.25
2023-03-12T00:34:29.732Z,22.50
2023-03-12T00:36:56.685Z,23.00
2023-03-12T00:39:23.745Z,21.00
2023-03-12T00:41:50.657Z,21.50
2023-03-12T00:44:17.676Z,18.00
2023-03-12T00:46:44.714Z,18.75
2023-03-12T00:49:11.788Z,21.00
2023-03-12T00:51:39.001Z,17.50
2023-03-12T00:54:06.196Z,15.50
2023-03-12T00:56:33.555Z,16.00
2023-03-12T00:59:00.688Z,15.50
2023-03-12T01:01:28.031Z,19.75
2023-03-12T01:03:55.435Z,16.00
2023-03-12T01:06:22.434Z,15.00
2023-03-12T01:08:49.576Z,17.00
2023-03-12T01:11:19.296Z,22.75
2023-03-12T01:13:46.323Z,22.50
2023-03-12T01:16:13.233Z,22.00
2023-03-12T01:18:41.682Z,17.00
2023-03-12T01:21:08.688Z,21.00
2023-03-12T01:23:35.663Z,19.00
2023-03-12T01:26:02.753Z,19.25
2023-03-12T01:28:29.780Z,25.25
2023-03-12T01:30:56.697Z,23.50
2023-03-12T01:33:23.729Z,22.25
2023-03-12T01:35:50.821Z,21.75
2023-03-12T01:38:17.938Z,25.25
2023-03-12T01:40:44.990Z,22.00
2023-03-12T01:43:33.544Z,16.50
2023-03-12T01:46:25.636Z,16.50
2023-03-12T01:49:09.053Z,19.50
2023-03-12T01:52:04.942Z,20.50
2023-03-12T01:54:50.463Z,17.50
2023-03-12T01:57:23.449Z,14.50
2023-03-12T01:59:56.762Z,17.50
2023-03-12T02:02:25.802Z,24.25
2023-03-12T02:05:03.709Z,24.00
2023-03-12T02:07:30.728Z,17.50
2023-03-12T02:09:57.894Z,15.25
2023-03-12T02:12:25.197Z,15.75
2023-03-12T02:14:52.331Z,20.50
2023-03-12T02:17:19.456Z,18.75
2023-03-12T02:19:46.439Z,15.00
2023-03-12T02:22:15.006Z,17.00
2023-03-12T02:24:56.288Z,17.75
2023-03-12T02:27:23.967Z,21.00
2023-03-12T02:29:51.150Z,15.75
2023-03-12T02:32:24.647Z,17.00
2023-03-12T02:34:51.930Z,14.00
2023-03-12T02:37:19.902Z,13.00
2023-03-12T02:39:56.207Z,14.00
2023-03-12T02:42:24.945Z,19.00
2023-03-12T02:44:51.939Z,21.00
2023-03-12T02:47:18.980Z,21.00
2023-03-12T02:49:46.267Z,20.00
2023-03-12T02:52:13.339Z,19.25
2023-03-12T02:54:40.259Z,21.00
2023-03-12T02:57:07.223Z,20.50
2023-03-12T02:59:34.748Z,19.25
2023-03-12T03:02:03.950Z,18.00
2023-03-12T03:04:31.637Z,14.25
2023-03-12T03:06:58.631Z,13.00
2023-03-12T03:09:25.912Z,19.00
2023-03-12T03:11:52.950Z,18.50
2023-03-12T03:14:21.151Z,16.00
2023-03-12T03:16:50.691Z,22.75
2023-03-12T03:19:17.910Z,14.75
2023-03-12T03:21:45.011Z,15.25
2023-03-12T03:24:12.369Z,13.50
2023-03-12T03:26:39.389Z,13.00
2023-03-12T03:29:06.393Z,13.00
2023-03-12T03:31:33.457Z,17.75
2023-03-12T03:34:00.922Z,16.00
2023-03-12T03:36:27.823Z,17.50
2023-03-12T03:39:05.151Z,24.25
2023-03-12T03:41:32.850Z,24.75
2023-03-12T03:43:59.770Z,19.00
2023-03-12T03:46:28.907Z,15.00
2023-03-12T03:49:02.468Z,12.00
2023-03-12T03:51:30.386Z,14.75
2023-03-12T03:54:02.205Z,17.25
2023-03-12T03:56:29.816Z,16.00
2023-03-12T03:58:59.056Z,19.75
2023-03-12T04:01:27.352Z,14.75
2023-03-12T04:03:55.668Z,19.50
2023-03-12T04:06:23.150Z,17.00
2023-03-12T04:08:50.350Z,17.25
2023-03-12T04:11:21.381Z,18.00
2023-03-12T04:13:49.163Z,13.00
2023-03-12T04:16:18.975Z,13.00
2023-03-12T04:18:47.227Z,13.00
2023-03-12T04:21:17.408Z,12.50
2023-03-12T04:23:45.389Z,12.50
2023-03-12T04:26:13.887Z,13.00
2023-03-12T04:28:40.925Z,21.25
2023-03-12T04:31:10.969Z,23.50
2023-03-12T04:33:42.167Z,16.25
2023-03-12T04:36:11.673Z,12.00
2023-03-12T04:38:40.787Z,17.50
2023-03-12T04:41:12.569Z,21.50
2023-03-12T04:43:44.803Z,19.00
2023-03-12T04:46:13.079Z,13.50
2023-03-12T04:48:42.615Z,20.25
2023-03-12T04:51:10.015Z,13.00
2023-03-12T04:53:37.677Z,18.75
2023-03-12T04:56:05.096Z,23.00
2023-03-12T04:58:33.020Z,14.50
2023-03-12T05:01:01.993Z,15.25
2023-03-12T05:03:30.115Z,19.00
2023-03-12T05:05:58.165Z,14.00
2023-03-12T05:08:25.765Z,14.50
2023-03-12T05:10:52.802Z,13.50
2023-03-12T05:13:23.002Z,17.00
2023-03-12T05:15:54.020Z,23.00
2023-03-12T05:18:21.693Z,19.00
2023-03-12T05:21:05.685Z,20.00
2023-03-12T05:23:33.609Z,17.25
2023-03-12T05:26:00.572Z,15.00
2023-03-12T05:28:28.816Z,12.50
2023-03-12T05:31:00.817Z,19.50
2023-03-12T05:33:29.081Z,18.75
2023-03-12T05:35:58.195Z,19.25
2023-03-12T05:38:26.776Z,23.50
2023-03-12T05:40:59.068Z,15.00
2023-03-12T05:43:28.618Z,13.25
2023-03-12T05:46:00.948Z,9.25
2023-03-12T05:48:28.688Z,9.75
2023-03-12T05:50:56.276Z,17.50
2023-03-12T05:53:23.743Z,23.75
2023-03-12T05:55:50.919Z,18.00
2023-03-12T05:58:18.083Z,10.50
2023-03-12T06:00:45.493Z,11.50
2023-03-12T06:03:13.757Z,17.00
2023-03-12T06:05:41.780Z,13.75
2023-03-12T06:08:08.828Z,19.00
2023-03-12T06:10:38.518Z,15.25
2023-03-12T06:13:06.116Z,15.00
2023-03-12T06:15:33.295Z,12.75
2023-03-12T06:18:01.064Z,12.00
2023-03-12T06:20:28.076Z,15.50
2023-03-12T06:22:55.217Z,15.25
2023-03-12T06:25:22.171Z,20.25
2023-03-12T06:27:49.340Z,14.25
2023-03-12T06:30:18.028Z,12.25
2023-03-12T06:32:45.136Z,14.50
2023-03-12T06:35:12.149Z,19.00
2023-03-12T06:37:39.283Z,21.00
2023-03-12T06:40:07.018Z,16.50
2023-03-12T06:42:34.053Z,12.75
2023-03-12T06:45:01.030Z,18.75
2023-03-12T06:47:28.030Z,13.75
2023-03-12T06:49:54.865Z,9.25
2023-03-12T06:52:21.838Z,11.50
2023-03-12T06:54:48.797Z,11.75
2023-03-12T06:57:16.257Z,10.00
2023-03-12T06:59:43.464Z,10.00
2023-03-12T07:02:12.199Z,8.00
2023-03-12T07:04:39.168Z,17.25
2023-03-12T07:07:06.322Z,13.75
2023-03-12T07:09:33.222Z,16.50
2023-03-12T07:12:00.147Z,12.50
2023-03-12T07:14:27.120Z,10.00
2023-03-12T07:16:54.104Z,12.00
2023-03-12T07:19:21.041Z,14.00
2023-03-12T07:21:48.315Z,13.00
2023-03-12T07:24:15.272Z,18.00
2023-03-12T07:26:42.349Z,11.50
2023-03-12T07:29:09.699Z,17.50
2023-03-12T07:31:36.797Z,14.00
2023-03-12T07:34:03.995Z,16.75
2023-03-12T07:36:31.311Z,12.25
2023-03-12T07:38:58.762Z,14.00
2023-03-12T07:41:26.491Z,14.50
2023-03-12T07:43:53.613Z,13.00
2023-03-12T07:46:20.713Z,20.25
2023-03-12T07:48:47.825Z,18.25
2023-03-12T07:51:14.856Z,13.00
2023-03-12T07:53:41.874Z,10.25
2023-03-12T07:56:09.026Z,14.00
2023-03-12T07:58:36.176Z,19.50
2023-03-12T08:01:03.456Z,23.00
2023-03-12T08:03:30.767Z,19.00
2023-03-12T08:06:03.728Z,11.00
2023-03-12T08:08:31.960Z,11.25
2023-03-12T08:11:03.622Z,12.00
2023-03-12T08:13:30.656Z,13.00
2023-03-12T08:15:57.613Z,12.00
2023-03-12T08:18:25.391Z,18.75
2023-03-12T08:20:54.524Z,21.00
2023-03-12T08:23:22.612Z,19.00
2023-03-12T08:25:51.122Z,17.75
2023-03-12T08:28:19.048Z,14.00
2023-03-12T08:30:54.935Z,13.00
2023-03-12T08:33:22.806Z,8.00
2023-03-12T08:35:50.133Z,8.00
2023-03-12T08:38:17.253Z,11.50
2023-03-12T08:40:45.305Z,15.00
2023-03-12T08:43:12.436Z,13.75
2023-03-12T08:45:39.597Z,17.00
2023-03-12T08:48:07.227Z,10.75
2023-03-12T08:50:34.137Z,10.25
2023-03-12T08:53:01.775Z,20.00
2023-03-12T08:55:28.660Z,11.75
2023-03-12T08:57:56.347Z,8.75
2023-03-12T09:00:23.480Z,14.00
2023-03-12T09:02:50.520Z,10.25
2023-03-12T09:05:17.547Z,16.75
2023-03-12T09:07:45.347Z,12.25
2023-03-12T09:10:12.348Z,8.00
2023-03-12T09:12:39.527Z,6.00
2023-03-12T09:15:07.637Z,4.25
2023-03-12T09:17:34.791Z,9.50
2023-03-12T09:20:01.676Z,9.75
2023-03-12T09:22:30.060Z,12.25
2023-03-12T09:24:57.459Z,11.75
2023-03-12T09:27:24.609Z,6.25
2023-03-12T09:30:00.305Z,4.25
2023-03-12T09:32:28.931Z,5.00
2023-03-12T09:34:56.599Z,12.50
2023-03-12T09:37:24.484Z,17.00
2023-03-12T09:39:53.169Z,15.00
2023-03-12T09:42:47.621Z,19.50
2023-03-12T09:45:29.215Z,15.00
2023-03-12T09:48:04.571Z,19.50
2023-03-12T09:50:38.106Z,13.00
2023-03-12T09:53:29.887Z,11.00
2023-03-12T09:55:59.754Z,10.00
2023-03-12T09:58:31.345Z,10.00
2023-03-12T10:01:27.468Z,8.00
2023-03-12T10:04:24.293Z,10.00
2023-03-12T10:07:02.649Z,17.00
2023-03-12T10:09:48.515Z,15.00
2023-03-12T10:12:31.060Z,15.00
2023-03-12T10:15:17.133Z,15.50
2023-03-12T10:18:05.902Z,11.75
2023-03-12T10:21:14.311Z,12.50
2023-03-12T10:24:02.211Z,10.00
2023-03-12T10:26:36.281Z,12.25
2023-03-12T10:29:27.124Z,12.50
2023-03-12T10:32:17.959Z,10.00
2023-03-12T10:35:15.285Z,15.75
2023-03-12T10:37:55.295Z,12.00
2023-03-12T10:40:25.225Z,7.00
2023-03-12T10:42:53.498Z,14.75
2023-03-12T10:45:29.237Z,14.00
2023-03-12T10:48:02.222Z,10.00
2023-03-12T10:50:34.439Z,15.50
2023-03-12T10:53:29.656Z,12.00
2023-03-12T10:56:14.932Z,18.50
2023-03-12T10:58:43.102Z,12.25
2023-03-12T11:01:31.724Z,12.75
2023-03-12T11:04:18.457Z,10.00
2023-03-12T11:07:07.798Z,8.75
2023-03-12T11:09:34.857Z,16.25
2023-03-12T11:12:01.934Z,19.00
2023-03-12T11:14:30.787Z,21.50
2023-03-12T11:17:18.300Z,15.75
2023-03-12T11:19:45.391Z,12.00
2023-03-12T11:22:12.253Z,14.50
2023-03-12T11:24:56.721Z,17.50
2023-03-12T11:27:45.251Z,17.75
2023-03-12T11:30:15.814Z,15.00
2023-03-12T11:32:48.585Z,13.00
2023-03-12T11:35:26.119Z,13.00
2023-03-12T11:38:13.311Z,14.50
2023-03-12T11:40:59.373Z,18.00
2023-03-12T11:43:43.372Z,14.50
2023-03-12T11:46:37.183Z,12.00
2023-03-12T11:49:17.899Z,15.25
2023-03-12T11:52:02.883Z,19.00
2023-03-12T11:55:02.821Z,20.00
2023-03-12T11:57:59.567Z,13.00
2023-03-12T12:00:49.463Z,14.25
2023-03-12T12:03:44.281Z,15.00
2023-03-12T12:06:30.024Z,15.00
2023-03-12T12:09:15.796Z,16.00
2023-03-12T12:11:42.727Z,20.00
2023-03-12T12:14:45.664Z,19.50
2023-03-12T12:17:42.157Z,21.75
2023-03-12T12:20:18.482Z,19.00
2023-03-12T12:22:54.507Z,16.00
2023-03-12T12:25:22.982Z,21.25
2023-03-12T12:28:08.094Z,17.00
2023-03-12T12:31:19.791Z,14.00
2023-03-12T12:34:10.687Z,24.50
2023-03-12T12:36:38.211Z,22.50
2023-03-12T12:39:13.402Z,21.75
2023-03-12T12:41:50.678Z,27.50
2023-03-12T12:44:27.207Z,20.00
2023-03-12T12:47:00.347Z,17.00
2023-03-12T12:49:35.425Z,15.00
2023-03-12T12:52:07.378Z,15.00
2023-03-12T12:55:03.658Z,17.25
2023-03-12T12:57:43.058Z,17.00
2023-03-12T13:00:12.919Z,15.00
2023-03-12T13:02:44.498Z,24.25
2023-03-12T13:05:37.085Z,23.00
2023-03-12T13:08:05.747Z,17.00
2023-03-12T13:10:35.595Z,15.00
2023-03-12T13:13:19.778Z,18.50
2023-03-12T13:15:48.082Z,19.00
2023-03-12T13:18:20.949Z,16.00
2023-03-12T13:20:54.184Z,24.75
2023-03-12T13:23:38.154Z,30.00
2023-03-12T13:26:11.242Z,22.25
2023-03-12T13:28:56.911Z,21.50
2023-03-12T13:31:29.910Z,16.00
2023-03-12T13:34:20.487Z,14.75
2023-03-12T13:36:53.114Z,22.50
2023-03-12T13:39:33.207Z,17.50
2023-03-12T13:42:01.611Z,18.00
2023-03-12T13:44:28.464Z,23.75
2023-03-12T13:47:10.847Z,18.25
2023-03-12T13:49:52.939Z,19.50
2023-03-12T13:52:26.715Z,26.25
2023-03-12T13:55:22.058Z,20.00
2023-03-12T13:57:57.680Z,25.25
2023-03-12T14:00:29.591Z,20.50
2023-03-12T14:03:26.541Z,21.00
2023-03-12T14:06:05.800Z,14.25
2023-03-12T14:08:35.919Z,22.25
2023-03-12T14:11:13.466Z,23.00
2023-03-12T14:14:05.798Z,19.00
2023-03-12T14:16:43.267Z,23.25
2023-03-12T14:19:16.208Z,18.50
2023-03-12T14:21:45.684Z,15.00
2023-03-12T14:24:26.277Z,15.00
2023-03-12T14:26:54.975Z,19.75
2023-03-12T14:29:31.160Z,21.00
2023-03-12T14:32:03.611Z,23.00
2023-03-12T14:34:45.384Z,22.00
2023-03-12T14:37:24.196Z,13.75
2023-03-12T14:39:56.594Z,12.00
2023-03-12T14:42:34.924Z,17.25
2023-03-12T14:45:11.738Z,15.00
2023-03-12T14:47:44.363Z,19.00
2023-03-12T14:50:25.942Z,12.00
2023-03-12T14:52:53.664Z,19.50
2023-03-12T14:55:24.656Z,20.00
2023-03-12T14:58:18.844Z,15.00
2023-03-12T15:00:56.115Z,20.00
2023-03-12T15:03:23.886Z,15.00
2023-03-12T15:05:52.586Z,17.75
2023-03-12T15:08:20.224Z,16.00
2023-03-12T15:10:50.243Z,18.75
2023-03-12T15:13:19.424Z,22.00
2023-03-12T15:15:48.807Z,13.00
2023-03-12T15:18:27.045Z,18.00
2023-03-12T15:20:58.976Z,20.00
2023-03-12T15:23:28.064Z,15.00
2023-03-12T15:26:19.798Z,14.00
2023-03-12T15:28:57.686Z,9.25
2023-03-12T15:31:25.224Z,12.25
2023-03-12T15:34:04.441Z,16.00
2023-03-12T15:36:34.275Z,23.50
2023-03-12T15:39:04.795Z,19.00
2023-03-12T15:41:44.677Z,16.00
2023-03-12T15:44:27.358Z,10.00
2023-03-12T15:47:06.245Z,14.50
2023-03-12T15:49:37.875Z,13.00
2023-03-12T15:52:28.439Z,13.25
2023-03-12T15:55:10.739Z,17.75
2023-03-12T15:57:55.610Z,9.00
2023-03-12T16:00:25.950Z,8.25
2023-03-12T16:02:56.232Z,16.00
2023-03-12T16:05:28.113Z,18.50
2023-03-12T16:07:55.220Z,15.50
2023-03-12T16:10:25.432Z,13.00
2023-03-12T16:12:59.554Z,17.25
2023-03-12T16:15:31.475Z,7.50
2023-03-12T16:17:58.832Z,8.75
2023-03-12T16:20:26.511Z,12.50
2023-03-12T16:22:53.517Z,10.00
2023-03-12T16:25:20.732Z,12.75
2023-03-12T16:27:54.889Z,9.00
2023-03-12T16:30:28.410Z,11.75
2023-03-12T16:32:56.916Z,12.00
2023-03-12T16:35:24.037Z,14.00
2023-03-12T16:37:51.076Z,14.00
2023-03-12T16:40:30.897Z,12.00
2023-03-12T16:43:01.971Z,6.25
2023-03-12T16:45:29.483Z,3.75
2023-03-12T16:48:02.515Z,7.75
2023-03-12T16:50:29.699Z,8.00
2023-03-12T16:52:58.365Z,11.00
2023-03-12T16:55:30.722Z,13.25
2023-03-12T16:58:01.601Z,7.50
2023-03-12T17:00:32.838Z,4.75
2023-03-12T17:03:00.762Z,5.00
2023-03-12T17:05:29.869Z,4.00
2023-03-12T17:07:58.200Z,10.00
2023-03-12T17:10:26.349Z,3.50
2023-03-12T17:12:53.988Z,6.00
2023-03-12T17:15:26.496Z,8.00
2023-03-12T17:17:53.793Z,8.00
2023-03-12T17:20:22.247Z,10.00
2023-03-12T17:22:49.326Z,6.00
2023-03-12T17:25:29.178Z,3.00
2023-03-12T17:27:56.404Z,2.00
2023-03-12T17:30:24.073Z,4.00
2023-03-12T17:32:52.153Z,2.00
2023-03-12T17:35:20.110Z,1.00
2023-03-12T17:37:47.093Z,4.25
2023-03-12T17:40:15.410Z,9.25
2023-03-12T17:42:42.426Z,3.25
2023-03-12T17:45:09.815Z,0.00
2023-03-12T17:47:37.738Z,0.00
2023-03-12T17:50:06.777Z,4.00
2023-03-12T17:52:34.104Z,0.50
2023-03-12T17:55:01.188Z,0.00
2023-03-12T17:57:28.273Z,0.00
2023-03-12T17:59:55.352Z,1.00
2023-03-12T18:02:22.412Z,2.00
2023-03-12T18:04:49.437Z,0.00
2023-03-12T18:07:16.580Z,0.00
2023-03-12T18:09:43.625Z,0.50
2023-03-12T18:12:10.698Z,8.75
2023-03-12T18:14:37.602Z,6.50
2023-03-12T18:17:04.906Z,8.00
2023-03-12T18:19:31.956Z,2.25
2023-03-12T18:22:00.103Z,0.00
2023-03-12T18:24:27.892Z,0.00
2023-03-12T18:26:55.955Z,0.00
2023-03-12T18:29:23.716Z,0.00
2023-03-12T18:31:53.821Z,3.75
2023-03-12T18:34:21.871Z,1.00
2023-03-12T18:36:49.179Z,5.75
2023-03-12T18:39:16.172Z,6.00
2023-03-12T18:41:43.301Z,1.00
2023-03-12T18:44:12.966Z,0.00
2023-03-12T18:46:43.408Z,0.00
2023-03-12T18:49:10.476Z,4.75
2023-03-12T18:51:37.795Z,3.50
2023-03-12T18:54:05.322Z,8.50
2023-03-12T18:56:32.249Z,8.00
2023-03-12T18:58:59.160Z,1.00
2023-03-12T19:01:26.340Z,0.50
2023-03-12T19:03:53.295Z,2.50
2023-03-12T19:06:20.431Z,1.00
2023-03-12T19:08:47.400Z,7.75
2023-03-12T19:11:16.562Z,1.25
2023-03-12T19:13:43.744Z,0.00
2023-03-12T19:16:12.720Z,0.00
2023-03-12T19:18:39.734Z,2.50
2023-03-12T19:21:10.050Z,5.00
2023-03-12T19:23:37.095Z,8.00
2023-03-12T19:26:04.717Z,6.00
2023-03-12T19:28:32.234Z,3.00
2023-03-12T19:31:04.149Z,8.25
2023-03-12T19:33:31.780Z,2.75
2023-03-12T19:35:59.120Z,0.00
2023-03-12T19:38:26.642Z,3.50
2023-03-12T19:40:55.812Z,3.75
2023-03-12T19:43:23.751Z,4.75
2023-03-12T19:45:50.910Z,3.00
2023-03-12T19:48:17.999Z,1.00
2023-03-12T19:50:45.062Z,3.25
2023-03-12T19:53:13.223Z,1.00
2023-03-12T19:55:40.237Z,0.00
2023-03-12T19:58:07.164Z,0.50
2023-03-12T20:00:34.093Z,2.00
2023-03-12T20:03:01.367Z,0.00
2023-03-12T20:05:28.357Z,0.50
2023-03-12T20:07:55.339Z,0.00
2023-03-12T20:10:22.435Z,0.00
2023-03-12T20:12:49.537Z,0.50
2023-03-12T20:15:16.517Z,2.00
2023-03-12T20:17:43.541Z,1.00
2023-03-12T20:20:11.151Z,0.00
2023-03-12T20:22:38.176Z,0.00
2023-03-12T20:25:06.287Z,0.00
2023-03-12T20:27:33.519Z,1.00
2023-03-12T20:30:00.455Z,0.00
2023-03-12T20:32:27.664Z,0.00
2023-03-12T20:34:54.602Z,0.00
2023-03-12T20:37:21.666Z,0.00
2023-03-12T20:39:48.589Z,0.75
2023-03-12T20:42:15.533Z,0.00
2023-03-12T20:44:42.417Z,0.00
2023-03-12T20:47:09.488Z,1.00
2023-03-12T20:49:36.414Z,4.25
2023-03-12T20:52:03.643Z,0.00
2023-03-12T20:54:30.609Z,2.25
2023-03-12T20:56:57.646Z,3.75
2023-03-12T20:59:24.515Z,4.00
2023-03-12T21:01:51.658Z,5.50
2023-03-12T21:04:18.761Z,1.00
2023-03-12T21:06:45.717Z,0.00
2023-03-12T21:09:12.635Z,0.00
2023-03-12T21:11:41.836Z,0.00
2023-03-12T21:14:09.026Z,0.00
2023-03-12T21:16:39.988Z,3.75
2023-03-12T21:19:07.233Z,4.75
2023-03-12T21:21:34.248Z,1.25
2023-03-12T21:24:04.682Z,0.00
2023-03-12T21:26:31.580Z,0.00
2023-03-12T21:28:58.472Z,0.00
2023-03-12T21:31:25.469Z,0.00
2023-03-12T21:33:57.756Z,1.25
2023-03-12T21:36:25.873Z,4.00
2023-03-12T21:38:52.985Z,0.00
2023-03-12T21:41:20.802Z,0.00
2023-03-12T21:43:48.060Z,2.50
2023-03-12T21:46:18.194Z,1.50
2023-03-12T21:48:47.511Z,0.00
2023-03-12T21:51:16.878Z,0.00
2023-03-12T21:53:43.871Z,2.00
2023-03-12T21:56:11.175Z,3.00
2023-03-12T21:58:38.085Z,0.00
2023-03-12T22:01:14.528Z,0.00
2023-03-12T22:03:43.792Z,0.00
2023-03-12T22:06:12.222Z,0.00
2023-03-12T22:08:40.014Z,1.00
2023-03-12T22:11:08.733Z,5.75
2023-03-12T22:13:36.257Z,1.25
2023-03-12T22:16:08.189Z,0.00
2023-03-12T22:18:40.052Z,0.50
2023-03-12T22:21:08.184Z,1.00
2023-03-12T22:23:36.649Z,0.00
2023-03-12T22:26:07.043Z,0.00
2023-03-12T22:28:35.001Z,0.00
2023-03-12T22:31:08.332Z,0.00
2023-03-12T22:33:36.409Z,0.00
2023-03-12T22:36:08.744Z,0.00
2023-03-12T22:38:36.852Z,0.00
2023-03-12T22:41:24.804Z,0.00
2023-03-12T22:43:55.130Z,0.00
2023-03-12T22:46:24.109Z,1.00
2023-03-12T22:48:56.255Z,0.00
2023-03-12T22:51:24.207Z,0.00
2023-03-12T22:53:51.089Z,1.00
2023-03-12T22:56:18.551Z,0.00
2023-03-12T22:58:46.260Z,0.50
2023-03-12T23:01:16.138Z,2.00
2023-03-12T23:03:44.987Z,0.00
2023-03-12T23:06:19.710Z,0.00
2023-03-12T23:08:47.956Z,2.00
2023-03-12T23:11:18.913Z,2.00
2023-03-12T23:13:46.779Z,5.00
2023-03-12T23:16:19.573Z,1.00
2023-03-12T23:18:47.694Z,2.00
2023-03-12T23:21:17.454Z,0.00
2023-03-12T23:23:45.055Z,0.00
2023-03-12T23:26:19.965Z,1.00
2023-03-12T23:28:47.390Z,1.00
2023-03-12T23:31:15.688Z,0.00
2023-03-12T23:33:43.599Z,0.00
2023-03-12T23:36:22.303Z,0.00
2023-03-12T23:38:50.175Z,0.00
2023-03-12T23:41:19.129Z,0.00
2023-03-12T23:43:46.686Z,0.00
2023-03-12T23:46:14.749Z,4.00
2023-03-12T23:48:41.887Z,0.00
2023-03-12T23:51:13.525Z,3.25
2023-03-12T23:53:42.840Z,0.75
2023-03-12T23:56:13.438Z,0.00
2023-03-12T23:58:41.141Z,0.00
